Time,TemperatureF,DewpointF,PressureIn,WindDirection,WindDirectionDegrees,WindSpeedMPH,WindSpeedGustMPH,Humidity,HourlyPrecipIn,Conditions,Clouds,dailyrainin,SolarRadiationWatts/m^2,SoftwareType,DateUTC
2013-02-13 00:00:00,30.9,24.5,29.91,East,80,0.0,0.0,77,0.00,BKN,,0.00,0.0,WeatherDisplay:10.37,2013-02-13 05:00:00,
2013-02-13 00:01:00,30.9,24.5,29.91,East,80,0.0,0.0,77,0.00,BKN,,0.00,0.0,WeatherDisplay:10.37,2013-02-13 05:01:00,
2013-02-13 00:06:00,30.7,24.7,29.90,East,80,0.0,1.1,78,0.00,SCT,,0.00,0.0,WeatherDisplay:10.37,2013-02-13 05:06:00,
2013-02-13 00:11:00,30.6,24.6,29.90,East,80,0.0,0.0,78,0.00,SCT,,0.00,0.0,WeatherDisplay:10.37,2013-02-13 05:11:00,
2013-02-13 00:16:00,30.6,24.6,29.90,East,80,0.0,0.0,78,0.00,SCT,,0.00,0.0,WeatherDisplay:10.37,2013-02-13 05:16:00,
2013-02-13 00:21:00,30.3,24.3,29.91,East,80,0.0,0.0,78,0.00,SCT,,0.00,0.0,WeatherDisplay:10.37,2013-02-13 05:21:00,
2013-02-13 00:26:00,30.1,24.4,29.91,East,80,0.0,0.0,79,0.00,SCT,,0.00,0.0,WeatherDisplay:10.37,2013-02-13 05:26:00,
2013-02-13 00:31:00,29.5,23.8,29.91,East,80,0.0,0.0,79,0.00,SCT,,0.00,0.0,WeatherDisplay:10.37,2013-02-13 05:31:00,
2013-02-13 00:36:00,29.4,24.0,29.92,East,80,0.7,3.5,80,0.00,SCT,,0.00,0.0,WeatherDisplay:10.37,2013-02-13 05:36:00,
2013-02-13 00:41:00,29.4,24.0,29.91,East,80,0.0,0.0,80,0.00,SCT,,0.00,0.0,WeatherDisplay:10.37,2013-02-13 05:41:00,
2013-02-13 00:46:00,29.1,23.7,29.91,East,80,0.0,0.0,80,0.00,SCT,,0.00,0.0,WeatherDisplay:10.37,2013-02-13 05:46:00,
2013-02-13 00:51:00,29.0,23.6,29.91,East,80,0.1,1.5,80,0.00,SCT,,0.00,0.0,WeatherDisplay:10.37,2013-02-13 05:51:00,
2013-02-13 00:56:00,29.0,23.6,29.91,East,80,0.0,0.0,80,0.00,SCT,,0.00,0.0,WeatherDisplay:10.37,2013-02-13 05:56:00,
2013-02-13 01:01:00,29.0,23.9,29.91,East,80,0.0,1.5,81,0.00,SCT,,0.00,0.0,WeatherDisplay:10.37,2013-02-13 06:01:00,
2013-02-13 01:06:00,28.7,23.6,29.91,East,80,0.0,0.0,81,0.00,SCT,,0.00,0.0,WeatherDisplay:10.37,2013-02-13 06:06:00,
2013-02-13 01:11:00,28.5,23.4,29.91,East,80,0.0,0.0,81,0.00,FEW,,0.00,0.0,WeatherDisplay:10.37,2013-02-13 06:11:00,
2013-02-13 01:16:00,28.7,23.9,29.91,East,80,0.0,1.1,82,0.00,FEW,,0.00,0.0,WeatherDisplay:10.37,2013-02-13 06:16:00,
2013-02-13 01:21:00,28.7,23.9,29.91,East,80,0.5,3.5,82,0.00,FEW,,0.00,0.0,WeatherDisplay:10.37,2013-02-13 06:21:00,
2013-02-13 01:26:00,28.7,24.2,29.90,East,80,0.0,0.0,83,0.00,FEW,,0.00,0.0,WeatherDisplay:10.37,2013-02-13 06:26:00,
2013-02-13 01:31:00,28.5,24.0,29.91,East,80,0.0,0.0,83,0.00,FEW,,0.00,0.0,WeatherDisplay:10.37,2013-02-13 06:31:00,
2013-02-13 01:36:00,28.4,23.6,29.90,East,80,1.7,3.5,82,0.00,FEW,,0.00,0.0,WeatherDisplay:10.37,2013-02-13 06:36:00,
2013-02-13 01:41:00,28.4,23.6,29.90,East,80,0.1,1.5,82,0.00,FEW,,0.00,0.0,WeatherDisplay:10.37,2013-02-13 06:41:00,
2013-02-13 01:46:00,28.1,23.3,29.90,East,80,0.0,0.0,82,0.00,FEW,,0.00,0.0,WeatherDisplay:10.37,2013-02-13 06:46:00,
2013-02-13 01:51:00,28.4,23.9,29.89,East,80,0.0,3.5,83,0.00,FEW,,0.00,0.0,WeatherDisplay:10.37,2013-02-13 06:51:00,
2013-02-13 01:56:00,28.7,23.9,29.89,East,80,0.0,0.0,82,0.00,FEW,,0.00,0.0,WeatherDisplay:10.37,2013-02-13 06:56:00,
2013-02-13 02:01:00,28.1,23.3,29.89,East,80,0.0,0.0,82,0.00,FEW,,0.00,0.0,WeatherDisplay:10.37,2013-02-13 07:01:00,
2013-02-13 02:06:00,27.6,22.8,29.88,East,80,0.0,0.0,82,0.00,FEW,,0.00,0.0,WeatherDisplay:10.37,2013-02-13 07:06:00,
2013-02-13 02:11:00,27.2,22.4,29.88,East,80,0.0,0.0,82,0.00,FEW,,0.00,0.0,WeatherDisplay:10.37,2013-02-13 07:11:00,
2013-02-13 02:16:00,26.9,22.1,29.88,East,80,0.0,0.0,82,0.00,FEW,,0.00,0.0,WeatherDisplay:10.37,2013-02-13 07:16:00,
2013-02-13 02:21:00,26.6,21.8,29.88,East,80,0.0,0.0,82,0.00,FEW,,0.00,0.0,WeatherDisplay:10.37,2013-02-13 07:21:00,
2013-02-13 02:26:00,26.4,21.9,29.88,East,80,0.0,0.0,83,0.00,FEW,,0.00,0.0,WeatherDisplay:10.37,2013-02-13 07:26:00,
2013-02-13 02:31:00,26.1,21.6,29.88,East,80,0.0,0.0,83,0.00,FEW,,0.00,0.0,WeatherDisplay:10.37,2013-02-13 07:31:00,
2013-02-13 02:36:00,26.1,21.6,29.88,East,80,0.0,0.0,83,0.00,FEW,,0.00,0.0,WeatherDisplay:10.37,2013-02-13 07:36:00,
2013-02-13 02:41:00,26.1,21.6,29.87,East,80,0.0,0.0,83,0.00,FEW,,0.00,0.0,WeatherDisplay:10.37,2013-02-13 07:41:00,
2013-02-13 02:46:00,26.4,22.2,29.87,East,80,0.0,0.0,84,0.00,FEW,,0.00,0.0,WeatherDisplay:10.37,2013-02-13 07:46:00,
2013-02-13 02:52:00,26.4,22.2,29.87,East,80,0.0,0.0,84,0.00,FEW,,0.00,0.0,WeatherDisplay:10.37,2013-02-13 07:52:00,
2013-02-13 02:57:00,26.1,21.9,29.87,East,80,0.0,0.0,84,0.00,FEW,,0.00,0.0,WeatherDisplay:10.37,2013-02-13 07:57:00,
2013-02-13 03:02:00,26.1,21.9,29.86,East,80,0.0,0.0,84,0.00,FEW,,0.00,0.0,WeatherDisplay:10.37,2013-02-13 08:02:00,
2013-02-13 03:07:00,26.0,21.8,29.86,East,80,0.0,0.0,84,0.00,FEW,,0.00,0.0,WeatherDisplay:10.37,2013-02-13 08:07:00,
2013-02-13 03:12:00,25.8,21.6,29.86,East,80,0.0,0.0,84,0.00,FEW,,0.00,0.0,WeatherDisplay:10.37,2013-02-13 08:12:00,
2013-02-13 03:17:00,25.7,21.5,29.86,East,80,0.0,0.0,84,0.00,FEW,,0.00,0.0,WeatherDisplay:10.37,2013-02-13 08:17:00,
2013-02-13 03:22:00,25.6,21.4,29.86,East,80,0.0,0.0,84,0.00,FEW,,0.00,0.0,WeatherDisplay:10.37,2013-02-13 08:22:00,
2013-02-13 03:27:00,25.3,21.1,29.86,East,80,1.3,1.5,84,0.00,FEW,,0.00,0.0,WeatherDisplay:10.37,2013-02-13 08:27:00,
2013-02-13 03:32:00,25.1,21.2,29.86,East,80,0.0,0.0,85,0.00,FEW,,0.00,0.0,WeatherDisplay:10.37,2013-02-13 08:32:00,
2013-02-13 03:37:00,24.8,20.9,29.86,East,80,0.0,0.0,85,0.00,FEW,,0.00,0.0,WeatherDisplay:10.37,2013-02-13 08:37:00,
2013-02-13 03:42:00,25.3,21.7,29.86,East,80,0.5,3.5,86,0.00,FEW,,0.00,0.0,WeatherDisplay:10.37,2013-02-13 08:42:00,
2013-02-13 03:47:00,26.0,22.4,29.86,East,80,0.4,1.1,86,0.00,FEW,,0.00,0.0,WeatherDisplay:10.37,2013-02-13 08:47:00,
2013-02-13 03:52:00,26.3,22.7,29.86,East,80,0.0,0.0,86,0.00,FEW,,0.00,0.0,WeatherDisplay:10.37,2013-02-13 08:52:00,
2013-02-13 03:57:00,26.7,23.1,29.86,East,80,0.0,0.0,86,0.00,FEW,,0.00,0.0,WeatherDisplay:10.37,2013-02-13 08:57:00,
2013-02-13 04:02:00,26.3,22.7,29.86,East,80,0.0,0.0,86,0.00,FEW,,0.00,0.0,WeatherDisplay:10.37,2013-02-13 09:02:00,
2013-02-13 04:07:00,26.3,22.7,29.85,East,80,0.1,1.5,86,0.00,FEW,,0.00,0.0,WeatherDisplay:10.37,2013-02-13 09:07:00,
2013-02-13 04:12:00,26.1,22.5,29.86,East,80,0.0,1.1,86,0.00,FEW,,0.00,0.0,WeatherDisplay:10.37,2013-02-13 09:12:00,
2013-02-13 04:17:00,26.0,22.1,29.85,East,80,0.0,0.0,85,0.00,FEW,,0.00,0.0,WeatherDisplay:10.37,2013-02-13 09:17:00,
2013-02-13 04:22:00,25.7,21.8,29.86,East,80,0.0,0.0,85,0.00,SCT,,0.00,0.0,WeatherDisplay:10.37,2013-02-13 09:22:00,
2013-02-13 04:27:00,25.3,21.4,29.85,East,80,0.0,0.0,85,0.00,SCT,,0.00,0.0,WeatherDisplay:10.37,2013-02-13 09:27:00,
2013-02-13 04:32:00,25.0,21.1,29.86,East,80,0.0,0.0,85,0.00,SCT,,0.00,0.0,WeatherDisplay:10.37,2013-02-13 09:32:00,
2013-02-13 04:37:00,24.8,20.9,29.86,East,80,0.0,0.0,85,0.00,SCT,,0.00,0.0,WeatherDisplay:10.37,2013-02-13 09:37:00,
2013-02-13 04:42:00,24.7,20.8,29.86,East,80,0.0,0.0,85,0.00,SCT,,0.00,0.0,WeatherDisplay:10.37,2013-02-13 09:42:00,
2013-02-13 04:47:00,24.5,20.6,29.86,East,80,0.0,0.0,85,0.00,SCT,,0.00,0.0,WeatherDisplay:10.37,2013-02-13 09:47:00,
2013-02-13 04:52:00,24.7,21.1,29.86,East,80,0.0,0.0,86,0.00,SCT,,0.00,0.0,WeatherDisplay:10.37,2013-02-13 09:52:00,
2013-02-13 04:57:00,24.7,21.1,29.86,East,80,0.0,0.0,86,0.00,SCT,,0.00,0.0,WeatherDisplay:10.37,2013-02-13 09:57:00,
2013-02-13 05:02:00,24.8,21.2,29.86,East,80,0.0,0.0,86,0.00,SCT,,0.00,0.0,WeatherDisplay:10.37,2013-02-13 10:02:00,
2013-02-13 05:07:00,25.1,21.5,29.86,East,80,0.0,0.0,86,0.00,SCT,,0.00,0.0,WeatherDisplay:10.37,2013-02-13 10:07:00,
2013-02-13 05:12:00,25.1,21.5,29.86,East,80,0.0,0.0,86,0.00,SCT,,0.00,0.0,WeatherDisplay:10.37,2013-02-13 10:12:00,
2013-02-13 05:17:00,25.1,21.5,29.85,East,80,0.0,0.0,86,0.00,SCT,,0.00,0.0,WeatherDisplay:10.37,2013-02-13 10:17:00,
2013-02-13 05:22:00,24.8,21.2,29.85,East,80,0.0,0.0,86,0.00,SCT,,0.00,0.0,WeatherDisplay:10.37,2013-02-13 10:22:00,
2013-02-13 05:27:00,24.7,21.1,29.85,East,80,0.0,0.0,86,0.00,SCT,,0.00,0.0,WeatherDisplay:10.37,2013-02-13 10:27:00,
2013-02-13 05:32:00,24.5,20.9,29.86,East,80,0.0,0.0,86,0.00,SCT,,0.00,0.0,WeatherDisplay:10.37,2013-02-13 10:32:00,
2013-02-13 05:37:00,24.7,21.1,29.86,East,80,0.0,0.0,86,0.00,SCT,,0.00,0.0,WeatherDisplay:10.37,2013-02-13 10:37:00,
2013-02-13 05:42:00,24.7,21.1,29.85,East,80,0.0,0.0,86,0.00,SCT,,0.00,0.0,WeatherDisplay:10.37,2013-02-13 10:42:00,
2013-02-13 05:47:00,24.4,20.8,29.86,East,80,0.0,0.0,86,0.00,SCT,,0.00,0.0,WeatherDisplay:10.37,2013-02-13 10:47:00,
2013-02-13 05:52:00,24.2,20.9,29.86,East,80,0.0,0.0,87,0.00,SCT,,0.00,0.0,WeatherDisplay:10.37,2013-02-13 10:52:00,
2013-02-13 05:57:00,24.2,20.9,29.86,East,80,0.0,0.0,87,0.00,SCT,,0.00,0.0,WeatherDisplay:10.37,2013-02-13 10:57:00,
2013-02-13 06:02:00,24.1,20.8,29.85,East,80,0.0,0.0,87,0.00,SCT,,0.00,0.0,WeatherDisplay:10.37,2013-02-13 11:02:00,
2013-02-13 06:07:00,24.1,20.8,29.85,East,80,0.0,0.0,87,0.00,SCT,,0.00,0.0,WeatherDisplay:10.37,2013-02-13 11:07:00,
2013-02-13 06:12:00,24.1,20.8,29.85,East,80,0.0,0.0,87,0.00,BKN,,0.00,0.0,WeatherDisplay:10.37,2013-02-13 11:12:00,
2013-02-13 06:17:00,24.4,21.1,29.85,East,80,0.0,0.0,87,0.00,BKN,,0.00,0.0,WeatherDisplay:10.37,2013-02-13 11:17:00,
2013-02-13 06:22:00,24.7,21.4,29.85,East,80,0.0,0.0,87,0.00,BKN,,0.00,0.0,WeatherDisplay:10.37,2013-02-13 11:22:00,
2013-02-13 06:27:00,24.8,21.8,29.85,East,80,0.0,0.0,88,0.00,BKN,,0.00,0.0,WeatherDisplay:10.37,2013-02-13 11:27:00,
2013-02-13 06:32:00,25.1,22.0,29.85,East,80,0.0,0.0,88,0.00,BKN,,0.00,0.0,WeatherDisplay:10.37,2013-02-13 11:32:00,
2013-02-13 06:37:00,25.6,22.5,29.85,East,80,0.1,1.1,88,0.00,BKN,,0.00,0.0,WeatherDisplay:10.37,2013-02-13 11:37:00,
2013-02-13 06:42:00,26.1,23.0,29.84,East,80,0.0,0.0,88,0.00,BKN,,0.00,0.0,WeatherDisplay:10.37,2013-02-13 11:42:00,
2013-02-13 06:47:00,26.4,23.3,29.84,East,80,0.0,0.0,88,0.00,BKN,,0.00,0.0,WeatherDisplay:10.37,2013-02-13 11:47:00,
2013-02-13 06:52:00,26.7,23.6,29.84,East,80,2.6,3.5,88,0.00,BKN,,0.00,0.0,WeatherDisplay:10.37,2013-02-13 11:52:00,
2013-02-13 06:57:00,26.9,23.8,29.84,East,80,0.1,1.5,88,0.00,BKN,,0.00,0.0,WeatherDisplay:10.37,2013-02-13 11:57:00,
2013-02-13 07:02:00,27.2,24.1,29.83,East,80,5.1,5.1,88,0.00,BKN,,0.00,0.0,WeatherDisplay:10.37,2013-02-13 12:02:00,
2013-02-13 07:07:00,27.5,24.4,29.83,East,80,0.0,4.6,88,0.00,BKN,,0.00,0.0,WeatherDisplay:10.37,2013-02-13 12:07:00,
2013-02-13 07:12:00,27.5,24.1,29.84,East,80,0.1,1.5,87,0.00,OVC,,0.00,5.0,WeatherDisplay:10.37,2013-02-13 12:12:00,
2013-02-13 07:17:00,27.5,24.1,29.83,East,80,0.3,1.5,87,0.00,OVC,,0.00,9.0,WeatherDisplay:10.37,2013-02-13 12:17:00,
2013-02-13 07:22:00,27.6,24.2,29.83,East,80,0.0,0.0,87,0.00,OVC,,0.00,12.0,WeatherDisplay:10.37,2013-02-13 12:22:00,
2013-02-13 07:27:00,27.8,24.4,29.83,East,80,0.0,0.0,87,0.00,OVC,,0.00,21.0,WeatherDisplay:10.37,2013-02-13 12:27:00,
2013-02-13 07:32:00,27.9,24.5,29.83,East,80,0.0,0.0,87,0.00,OVC,,0.00,26.0,WeatherDisplay:10.37,2013-02-13 12:32:00,
2013-02-13 07:37:00,27.8,24.4,29.84,East,80,0.0,0.0,87,0.00,OVC,,0.00,32.0,WeatherDisplay:10.37,2013-02-13 12:37:00,
2013-02-13 07:42:00,27.8,24.4,29.84,East,80,0.0,0.0,87,0.00,OVC,,0.00,35.0,WeatherDisplay:10.37,2013-02-13 12:42:00,
2013-02-13 07:47:00,27.9,24.5,29.83,East,80,0.0,0.0,87,0.00,OVC,,0.00,47.0,WeatherDisplay:10.37,2013-02-13 12:47:00,
2013-02-13 07:52:00,28.1,24.7,29.84,East,80,0.0,0.0,87,0.00,OVC,,0.00,51.0,WeatherDisplay:10.37,2013-02-13 12:52:00,
2013-02-13 07:57:00,28.4,25.0,29.84,East,80,0.2,1.5,87,0.00,OVC,,0.00,56.0,WeatherDisplay:10.37,2013-02-13 12:57:00,
2013-02-13 08:02:00,28.7,25.3,29.85,East,80,0.0,0.0,87,0.00,OVC,,0.00,67.0,WeatherDisplay:10.37,2013-02-13 13:02:00,
2013-02-13 08:07:00,29.0,25.6,29.85,East,80,0.0,0.0,87,0.00,OVC,,0.00,72.0,WeatherDisplay:10.37,2013-02-13 13:07:00,
2013-02-13 08:12:00,29.4,26.0,29.84,East,80,0.2,1.5,87,0.00,OVC,,0.00,72.0,WeatherDisplay:10.37,2013-02-13 13:12:00,
2013-02-13 08:17:00,30.6,27.2,29.84,East,80,0.0,0.0,87,0.00,OVC,,0.00,69.0,WeatherDisplay:10.37,2013-02-13 13:17:00,
2013-02-13 08:22:00,31.0,27.3,29.85,East,80,0.0,0.0,86,0.00,OVC,,0.00,74.0,WeatherDisplay:10.37,2013-02-13 13:22:00,
2013-02-13 08:27:00,31.5,27.8,29.85,East,80,0.0,0.0,86,0.00,OVC,,0.00,90.0,WeatherDisplay:10.37,2013-02-13 13:27:00,
2013-02-13 08:32:00,31.9,27.9,29.85,East,80,1.2,3.5,85,0.00,OVC,,0.00,102.0,WeatherDisplay:10.37,2013-02-13 13:32:00,
2013-02-13 08:37:00,33.1,28.5,29.85,East,84,5.4,8.1,83,0.00,OVC,,0.00,111.0,WeatherDisplay:10.37,2013-02-13 13:37:00,
2013-02-13 08:42:00,34.1,28.0,29.84,East,84,2.6,4.5,78,0.00,OVC,,0.00,120.0,WeatherDisplay:10.37,2013-02-13 13:42:00,
2013-02-13 08:47:00,34.9,27.8,29.84,East,84,2.6,6.0,75,0.00,OVC,,0.00,123.0,WeatherDisplay:10.37,2013-02-13 13:47:00,
2013-02-13 08:52:00,35.3,27.2,29.84,East,84,2.1,4.6,72,0.00,OVC,,0.00,132.0,WeatherDisplay:10.37,2013-02-13 13:52:00,
2013-02-13 08:57:00,35.8,27.3,29.84,East,88,4.4,8.1,71,0.00,OVC,,0.00,123.0,WeatherDisplay:10.37,2013-02-13 13:57:00,
2013-02-13 09:02:00,35.8,26.6,29.83,East,94,1.1,8.1,69,0.00,OVC,,0.00,128.0,WeatherDisplay:10.37,2013-02-13 14:02:00,
2013-02-13 09:07:00,36.0,26.5,29.83,East,95,1.6,9.2,68,0.00,OVC,,0.00,130.0,WeatherDisplay:10.37,2013-02-13 14:07:00,
2013-02-13 09:12:00,36.2,26.3,29.83,East,95,0.0,0.0,67,0.00,OVC,,0.00,137.0,WeatherDisplay:10.37,2013-02-13 14:12:00,
2013-02-13 09:17:00,36.5,26.6,29.83,East,95,0.9,1.1,67,0.00,OVC,,0.00,134.0,WeatherDisplay:10.37,2013-02-13 14:17:00,
2013-02-13 09:22:00,36.6,26.3,29.83,East,95,4.1,6.0,66,0.00,OVC,,0.00,130.0,WeatherDisplay:10.37,2013-02-13 14:22:00,
2013-02-13 09:27:00,36.6,25.9,29.83,East,95,5.3,7.5,65,0.00,OVC,,0.00,132.0,WeatherDisplay:10.37,2013-02-13 14:27:00,
2013-02-13 09:32:00,36.8,26.1,29.82,East,95,1.9,4.6,65,0.00,OVC,,0.00,139.0,WeatherDisplay:10.37,2013-02-13 14:32:00,
2013-02-13 09:37:00,36.9,26.2,29.81,East,95,3.4,4.6,65,0.00,OVC,,0.00,169.0,WeatherDisplay:10.37,2013-02-13 14:37:00,
2013-02-13 09:42:00,36.9,26.2,29.81,East,95,6.4,10.5,65,0.00,OVC,,0.00,167.0,WeatherDisplay:10.37,2013-02-13 14:42:00,
2013-02-13 09:47:00,37.0,25.9,29.82,East,94,1.6,7.5,64,0.00,OVC,,0.00,186.0,WeatherDisplay:10.37,2013-02-13 14:47:00,
2013-02-13 09:52:00,37.0,25.9,29.82,ESE,103,7.1,9.2,64,0.00,OVC,,0.00,229.0,WeatherDisplay:10.37,2013-02-13 14:52:00,
2013-02-13 09:57:00,37.3,26.2,29.81,East,94,4.7,9.2,64,0.00,OVC,,0.00,287.0,WeatherDisplay:10.37,2013-02-13 14:57:00,
2013-02-13 10:02:00,37.8,26.3,29.82,SE,130,7.7,8.1,63,0.00,OVC,,0.00,287.0,WeatherDisplay:10.37,2013-02-13 15:02:00,
2013-02-13 10:07:00,37.9,26.0,29.82,SE,131,6.0,8.1,62,0.00,OVC,,0.00,209.0,WeatherDisplay:10.37,2013-02-13 15:07:00,
2013-02-13 10:12:00,38.0,26.1,29.82,East,98,11.3,12.0,62,0.00,OVC,,0.00,250.0,WeatherDisplay:10.37,2013-02-13 15:12:00,
2013-02-13 10:17:00,38.2,26.3,29.82,ESE,109,1.2,3.5,62,0.00,OVC,,0.00,246.0,WeatherDisplay:10.37,2013-02-13 15:17:00,
2013-02-13 10:22:00,38.3,26.4,29.81,ENE,65,1.8,3.5,62,0.00,OVC,,0.00,206.0,WeatherDisplay:10.37,2013-02-13 15:22:00,
2013-02-13 10:27:00,38.2,26.3,29.80,SE,126,2.3,6.0,62,0.00,OVC,,0.00,209.0,WeatherDisplay:10.37,2013-02-13 15:27:00,
2013-02-13 10:32:00,38.3,26.8,29.80,ESE,114,1.1,4.6,63,0.00,OVC,,0.00,206.0,WeatherDisplay:10.37,2013-02-13 15:32:00,
2013-02-13 10:37:00,38.3,26.4,29.80,East,87,8.5,9.2,62,0.00,OVC,,0.00,232.0,WeatherDisplay:10.37,2013-02-13 15:37:00,
2013-02-13 10:42:00,38.5,26.6,29.80,East,89,0.7,4.6,62,0.00,OVC,,0.00,176.0,WeatherDisplay:10.37,2013-02-13 15:42:00,
2013-02-13 10:47:00,38.2,25.9,29.80,SSE,159,7.6,9.2,61,0.00,OVC,,0.00,174.0,WeatherDisplay:10.37,2013-02-13 15:47:00,
2013-02-13 10:52:00,38.0,26.1,29.80,SSE,148,5.5,8.1,62,0.00,OVC,,0.00,162.0,WeatherDisplay:10.37,2013-02-13 15:52:00,
2013-02-13 10:57:00,37.9,26.0,29.80,SE,140,1.8,5.8,62,0.00,OVC,,0.00,148.0,WeatherDisplay:10.37,2013-02-13 15:57:00,
2013-02-13 11:02:00,38.0,26.1,29.80,SE,142,1.3,4.5,62,0.00,OVC,,0.00,156.0,WeatherDisplay:10.37,2013-02-13 16:02:00,
2013-02-13 11:07:00,38.0,26.5,29.80,SE,138,2.8,6.0,63,0.00,OVC,,0.00,211.0,WeatherDisplay:10.37,2013-02-13 16:07:00,
2013-02-13 11:12:00,38.3,26.8,29.80,SE,134,1.6,4.6,63,0.00,OVC,,0.00,183.0,WeatherDisplay:10.37,2013-02-13 16:12:00,
2013-02-13 11:17:00,38.6,27.1,29.79,SE,136,0.4,1.5,63,0.00,OVC,,0.00,232.0,WeatherDisplay:10.37,2013-02-13 16:17:00,
2013-02-13 11:22:00,38.8,26.9,29.78,ESE,120,7.1,10.4,62,0.00,OVC,,0.00,345.0,WeatherDisplay:10.37,2013-02-13 16:22:00,
2013-02-13 11:27:00,39.1,27.2,29.78,ESE,104,4.5,8.1,62,0.00,OVC,,0.00,468.0,WeatherDisplay:10.37,2013-02-13 16:27:00,
2013-02-13 11:32:00,39.8,27.8,29.78,ESE,103,6.7,9.0,62,0.00,OVC,,0.00,420.0,WeatherDisplay:10.37,2013-02-13 16:32:00,
2013-02-13 11:37:00,40.2,28.2,29.77,ESE,103,5.2,8.1,62,0.00,OVC,,0.00,392.0,WeatherDisplay:10.37,2013-02-13 16:37:00,
2013-02-13 11:42:00,40.5,27.7,29.75,ESE,102,8.7,10.5,60,0.00,OVC,,0.00,345.0,WeatherDisplay:10.37,2013-02-13 16:42:00,
2013-02-13 11:47:00,40.3,27.5,29.76,SE,130,2.6,4.6,60,0.00,OVC,,0.00,410.0,WeatherDisplay:10.37,2013-02-13 16:47:00,
2013-02-13 11:52:00,40.3,27.5,29.75,East,93,8.3,10.4,60,0.00,OVC,,0.00,364.0,WeatherDisplay:10.37,2013-02-13 16:52:00,
2013-02-13 11:57:00,40.5,27.3,29.75,East,101,4.7,6.0,59,0.00,OVC,,0.00,367.0,WeatherDisplay:10.37,2013-02-13 16:57:00,
2013-02-13 12:02:00,40.6,27.4,29.74,ENE,74,4.1,6.0,59,0.00,OVC,,0.00,369.0,WeatherDisplay:10.37,2013-02-13 17:02:00,
2013-02-13 12:07:00,40.9,28.1,29.74,SSE,148,10.6,11.5,60,0.00,OVC,,0.00,376.0,WeatherDisplay:10.37,2013-02-13 17:07:00,
2013-02-13 12:12:00,41.1,27.9,29.75,SE,132,1.2,4.6,59,0.00,BKN,,0.00,287.0,WeatherDisplay:10.37,2013-02-13 17:12:00,
2013-02-13 12:17:00,41.3,28.0,29.75,East,93,4.8,6.0,59,0.00,BKN,,0.00,214.0,WeatherDisplay:10.37,2013-02-13 17:17:00,
2013-02-13 12:22:00,41.3,28.0,29.74,East,93,1.1,1.5,59,0.00,BKN,,0.00,186.0,WeatherDisplay:10.37,2013-02-13 17:22:00,
2013-02-13 12:27:00,41.2,27.9,29.74,East,92,1.4,3.5,59,0.00,BKN,,0.00,171.0,WeatherDisplay:10.37,2013-02-13 17:27:00,
2013-02-13 12:32:00,40.9,27.7,29.74,East,98,2.6,6.0,59,0.00,BKN,,0.00,181.0,WeatherDisplay:10.37,2013-02-13 17:32:00,
2013-02-13 12:37:00,40.9,28.1,29.74,ENE,74,3.6,8.1,60,0.00,BKN,,0.00,169.0,WeatherDisplay:10.37,2013-02-13 17:37:00,
2013-02-13 12:42:00,40.8,27.6,29.74,ENE,74,0.1,1.1,59,0.00,BKN,,0.00,188.0,WeatherDisplay:10.37,2013-02-13 17:42:00,
2013-02-13 12:47:00,41.1,28.3,29.73,ESE,120,3.0,4.6,60,0.00,BKN,,0.00,149.0,WeatherDisplay:10.37,2013-02-13 17:47:00,
2013-02-13 12:52:00,40.9,28.1,29.73,ESE,120,0.6,1.5,60,0.00,BKN,,0.00,104.0,WeatherDisplay:10.37,2013-02-13 17:52:00,
2013-02-13 12:57:00,40.8,28.0,29.73,ESE,114,0.0,1.5,60,0.00,BKN,,0.00,83.0,WeatherDisplay:10.37,2013-02-13 17:57:00,
2013-02-13 13:02:00,40.6,27.8,29.74,ESE,114,0.9,3.0,60,0.00,BKN,,0.00,104.0,WeatherDisplay:10.37,2013-02-13 18:02:00,
2013-02-13 13:07:00,40.3,27.5,29.74,ESE,107,0.7,3.5,60,0.00,BKN,,0.00,118.0,WeatherDisplay:10.37,2013-02-13 18:07:00,
2013-02-13 13:12:00,40.3,27.9,29.73,ESE,108,2.4,3.5,61,0.00,OVC,,0.00,125.0,WeatherDisplay:10.37,2013-02-13 18:12:00,
2013-02-13 13:17:00,40.3,27.9,29.73,ESE,103,0.7,3.5,61,0.00,OVC,,0.00,102.0,WeatherDisplay:10.37,2013-02-13 18:17:00,
2013-02-13 13:22:00,40.3,27.9,29.72,East,100,2.2,5.8,61,0.00,OVC,,0.00,114.0,WeatherDisplay:10.37,2013-02-13 18:22:00,
2013-02-13 13:27:00,40.5,28.1,29.73,East,101,0.4,1.5,61,0.00,OVC,,0.00,118.0,WeatherDisplay:10.37,2013-02-13 18:27:00,
2013-02-13 13:32:00,40.6,28.2,29.72,East,100,0.6,3.5,61,0.00,OVC,,0.00,125.0,WeatherDisplay:10.37,2013-02-13 18:32:00,
2013-02-13 13:37:00,40.6,28.2,29.71,East,100,0.4,3.0,61,0.00,OVC,,0.00,134.0,WeatherDisplay:10.37,2013-02-13 18:37:00,
2013-02-13 13:42:00,40.8,28.4,29.70,East,99,0.8,3.0,61,0.00,OVC,,0.00,132.0,WeatherDisplay:10.37,2013-02-13 18:42:00,
2013-02-13 13:47:00,40.8,28.4,29.70,East,97,2.7,4.6,61,0.00,OVC,,0.00,128.0,WeatherDisplay:10.37,2013-02-13 18:47:00,
2013-02-13 13:52:00,40.8,28.4,29.70,East,97,2.4,4.6,61,0.00,OVC,,0.00,81.0,WeatherDisplay:10.37,2013-02-13 18:52:00,
2013-02-13 13:57:00,40.6,27.8,29.70,East,97,0.0,0.0,60,0.00,OVC,,0.00,100.0,WeatherDisplay:10.37,2013-02-13 18:57:00,
2013-02-13 14:02:00,40.6,28.2,29.70,East,97,0.0,0.0,61,0.00,OVC,,0.00,134.0,WeatherDisplay:10.37,2013-02-13 19:02:00,
2013-02-13 14:07:00,40.9,28.5,29.69,East,97,0.8,1.5,61,0.00,OVC,,0.00,128.0,WeatherDisplay:10.37,2013-02-13 19:07:00,
2013-02-13 14:12:00,40.9,28.5,29.69,East,97,1.8,3.5,61,0.00,OVC,,0.00,109.0,WeatherDisplay:10.37,2013-02-13 19:12:00,
2013-02-13 14:17:00,40.8,28.4,29.68,East,97,0.5,1.5,61,0.00,OVC,,0.00,127.0,WeatherDisplay:10.37,2013-02-13 19:17:00,
2013-02-13 14:22:00,40.8,28.8,29.68,East,97,1.2,3.0,62,0.00,OVC,,0.00,239.0,WeatherDisplay:10.37,2013-02-13 19:22:00,
2013-02-13 14:27:00,41.1,29.1,29.68,NE,35,4.0,4.6,62,0.00,OVC,,0.00,179.0,WeatherDisplay:10.37,2013-02-13 19:27:00,
2013-02-13 14:32:00,41.1,29.5,29.67,NNE,26,0.1,3.5,63,0.00,OVC,,0.00,171.0,WeatherDisplay:10.37,2013-02-13 19:32:00,
2013-02-13 14:37:00,41.1,29.8,29.67,North,9,0.9,1.5,64,0.00,OVC,,0.00,176.0,WeatherDisplay:10.37,2013-02-13 19:37:00,
2013-02-13 14:42:00,40.9,29.3,29.66,NNE,26,3.7,5.8,63,0.00,OVC,,0.00,179.0,WeatherDisplay:10.37,2013-02-13 19:42:00,
2013-02-13 14:47:00,40.9,29.7,29.66,East,92,1.0,3.5,64,0.00,OVC,,0.00,169.0,WeatherDisplay:10.37,2013-02-13 19:47:00,
2013-02-13 14:52:00,40.9,29.3,29.66,North,5,2.0,4.6,63,0.00,OVC,,0.00,153.0,WeatherDisplay:10.37,2013-02-13 19:52:00,
2013-02-13 14:57:00,40.9,29.3,29.66,NNE,14,3.0,5.8,63,0.00,OVC,,0.00,155.0,WeatherDisplay:10.37,2013-02-13 19:57:00,
2013-02-13 15:02:00,40.9,29.7,29.66,NNW,346,7.0,9.2,64,0.00,OVC,,0.00,104.0,WeatherDisplay:10.37,2013-02-13 20:02:00,
2013-02-13 15:07:00,40.8,29.2,29.66,NNW,340,0.8,4.6,63,0.00,OVC,,0.00,141.0,WeatherDisplay:10.37,2013-02-13 20:07:00,
2013-02-13 15:12:00,40.8,29.2,29.66,North,5,4.0,5.8,63,0.00,OVC,,0.00,148.0,WeatherDisplay:10.37,2013-02-13 20:12:00,
2013-02-13 15:17:00,40.8,29.6,29.65,ESE,106,4.1,9.0,64,0.00,OVC,,0.00,139.0,WeatherDisplay:10.37,2013-02-13 20:17:00,
2013-02-13 15:22:00,40.8,29.6,29.65,NNW,336,1.2,1.5,64,0.00,OVC,,0.00,109.0,WeatherDisplay:10.37,2013-02-13 20:22:00,
2013-02-13 15:27:00,40.8,29.6,29.65,NNW,338,0.0,3.5,64,0.00,OVC,,0.00,95.0,WeatherDisplay:10.37,2013-02-13 20:27:00,
2013-02-13 15:32:00,40.9,30.0,29.66,NNW,338,0.1,1.5,65,0.00,OVC,,0.00,93.0,WeatherDisplay:10.37,2013-02-13 20:32:00,
2013-02-13 15:37:00,40.8,29.2,29.66,North,5,2.2,6.0,63,0.00,OVC,,0.00,56.0,WeatherDisplay:10.37,2013-02-13 20:37:00,
2013-02-13 15:42:00,40.5,28.9,29.66,North,355,1.8,4.5,63,0.00,OVC,,0.00,84.0,WeatherDisplay:10.37,2013-02-13 20:42:00,
2013-02-13 15:47:00,40.6,29.4,29.65,North,5,0.8,3.0,64,0.00,OVC,,0.00,77.0,WeatherDisplay:10.37,2013-02-13 20:47:00,
2013-02-13 15:52:00,40.5,28.9,29.65,NNE,13,1.9,3.5,63,0.00,OVC,,0.00,95.0,WeatherDisplay:10.37,2013-02-13 20:52:00,
2013-02-13 15:57:00,40.5,29.3,29.65,NNE,22,1.0,3.5,64,0.00,OVC,,0.00,67.0,WeatherDisplay:10.37,2013-02-13 20:57:00,
2013-02-13 16:02:00,40.6,29.0,29.65,NNE,22,1.3,3.0,63,0.00,OVC,,0.00,72.0,WeatherDisplay:10.37,2013-02-13 21:02:00,
2013-02-13 16:07:00,40.6,29.0,29.65,NNE,17,3.8,5.8,63,0.00,OVC,,0.00,47.0,WeatherDisplay:10.37,2013-02-13 21:07:00,
2013-02-13 16:12:00,40.6,29.0,29.65,NNE,15,3.1,4.6,63,0.00,OVC,,0.00,49.0,WeatherDisplay:10.37,2013-02-13 21:12:00,
2013-02-13 16:17:00,40.6,29.0,29.65,NNE,17,0.5,1.5,63,0.00,OVC,,0.00,47.0,WeatherDisplay:10.37,2013-02-13 21:17:00,
2013-02-13 16:22:00,40.6,29.4,29.65,NNE,17,0.2,1.1,64,0.00,-RA,,0.00,49.0,WeatherDisplay:10.37,2013-02-13 21:22:00,
2013-02-13 16:27:00,40.6,29.7,29.65,NNE,17,1.0,3.5,65,0.00,-RA,,0.00,35.0,WeatherDisplay:10.37,2013-02-13 21:27:00,
2013-02-13 16:32:00,40.5,29.7,29.64,NNE,17,3.6,8.1,65,0.00,-RA,,0.00,26.0,WeatherDisplay:10.37,2013-02-13 21:32:00,
2013-02-13 16:37:00,40.2,29.7,29.65,NNW,346,3.0,7.5,66,0.00,-RA,,0.00,23.0,WeatherDisplay:10.37,2013-02-13 21:37:00,
2013-02-13 16:42:00,40.1,29.3,29.64,NE,51,6.0,9.0,65,0.00,-RA,,0.00,21.0,WeatherDisplay:10.37,2013-02-13 21:42:00,
2013-02-13 16:47:00,39.8,29.4,29.64,NNE,17,4.8,5.8,66,0.00,-RA,,0.00,19.0,WeatherDisplay:10.37,2013-02-13 21:47:00,
2013-02-13 16:52:00,39.6,29.5,29.64,NNE,12,0.4,3.5,67,0.00,-RA,,0.00,14.0,WeatherDisplay:10.37,2013-02-13 21:52:00,
2013-02-13 16:57:00,39.5,29.8,29.64,NNE,13,1.0,3.5,68,0.00,-RA,,0.00,16.0,WeatherDisplay:10.37,2013-02-13 21:57:00,
2013-02-13 17:02:00,39.3,30.3,29.64,North,11,1.5,3.5,70,0.00,-RA,,0.00,21.0,WeatherDisplay:10.37,2013-02-13 22:02:00,
2013-02-13 17:07:00,39.2,30.6,29.65,North,355,0.0,0.0,71,0.00,-RA,,0.00,9.0,WeatherDisplay:10.37,2013-02-13 22:07:00,
2013-02-13 17:12:00,38.9,30.6,29.64,NNE,28,3.6,5.8,72,0.00,-RA,,0.00,5.0,WeatherDisplay:10.37,2013-02-13 22:12:00,
2013-02-13 17:17:00,38.8,30.9,29.65,North,10,0.4,4.6,73,0.00,-RA,,0.00,5.0,WeatherDisplay:10.37,2013-02-13 22:17:00,
2013-02-13 17:22:00,38.6,31.0,29.65,North,10,1.4,4.6,74,0.00,-RA,,0.00,0.0,WeatherDisplay:10.37,2013-02-13 22:22:00,
2013-02-13 17:27:00,38.5,31.6,29.65,NNW,344,0.0,0.0,76,0.00,-RA,,0.00,5.0,WeatherDisplay:10.37,2013-02-13 22:27:00,
2013-02-13 17:32:00,38.2,31.6,29.65,North,355,1.9,4.6,77,0.00,-RA,,0.00,0.0,WeatherDisplay:10.37,2013-02-13 22:32:00,
2013-02-13 17:37:00,38.0,31.7,29.65,North,355,0.8,3.5,78,0.00,-RA,,0.00,0.0,WeatherDisplay:10.37,2013-02-13 22:37:00,
2013-02-13 17:42:00,37.9,32.0,29.65,NNE,31,2.9,8.1,79,0.00,-RA,,0.00,0.0,WeatherDisplay:10.37,2013-02-13 22:42:00,
2013-02-13 17:47:00,37.6,32.0,29.65,NNW,339,2.6,4.6,80,0.00,-RA,,0.00,0.0,WeatherDisplay:10.37,2013-02-13 22:47:00,
2013-02-13 17:52:00,37.5,31.9,29.65,NNW,342,0.8,3.5,80,0.00,-RA,,0.00,0.0,WeatherDisplay:10.37,2013-02-13 22:52:00,
2013-02-13 17:57:00,37.3,32.0,29.65,NNE,18,4.4,5.8,81,0.00,-RA,,0.00,0.0,WeatherDisplay:10.37,2013-02-13 22:57:00,
2013-02-13 18:02:00,37.0,32.0,29.65,North,5,0.6,4.6,82,0.00,-RA,,0.00,0.0,WeatherDisplay:10.37,2013-02-13 23:02:00,
2013-02-13 18:07:00,36.9,32.2,29.65,NNE,28,0.4,3.5,83,0.00,-RA,,0.00,0.0,WeatherDisplay:10.37,2013-02-13 23:07:00,
2013-02-13 18:12:00,36.6,31.9,29.65,NNE,32,4.1,6.0,83,0.01,-RA,,0.01,0.0,WeatherDisplay:10.37,2013-02-13 23:12:00,
2013-02-13 18:17:00,36.3,31.9,29.66,NNE,32,0.9,3.5,84,0.01,-RA,,0.01,0.0,WeatherDisplay:10.37,2013-02-13 23:17:00,
2013-02-13 18:22:00,36.2,32.1,29.66,NNE,13,1.4,3.5,85,0.01,-RA,,0.01,0.0,WeatherDisplay:10.37,2013-02-13 23:22:00,
2013-02-13 18:28:00,36.0,32.2,29.67,North,360,1.6,3.5,86,0.01,-RA,,0.01,0.0,WeatherDisplay:10.37,2013-02-13 23:28:00,
2013-02-13 18:33:00,36.0,32.2,29.68,North,360,0.1,1.5,86,0.01,-RA,,0.01,0.0,WeatherDisplay:10.37,2013-02-13 23:33:00,
2013-02-13 18:38:00,35.9,32.1,29.68,North,355,1.7,3.5,86,0.01,-RA,,0.01,0.0,WeatherDisplay:10.37,2013-02-13 23:38:00,
2013-02-13 18:43:00,35.8,32.3,29.68,NNW,347,0.1,1.5,87,0.02,-RA,,0.02,0.0,WeatherDisplay:10.37,2013-02-13 23:43:00,
2013-02-13 18:48:00,35.5,32.0,29.68,NNW,346,1.3,4.6,87,0.02,-RA,,0.02,0.0,WeatherDisplay:10.37,2013-02-13 23:48:00,
2013-02-13 18:53:00,35.2,32.0,29.69,NNW,344,0.5,1.5,88,0.02,-RA,,0.02,0.0,WeatherDisplay:10.37,2013-02-13 23:53:00,
2013-02-13 18:58:00,34.9,31.7,29.68,NNW,344,0.0,0.0,88,0.03,-RA,,0.03,0.0,WeatherDisplay:10.37,2013-02-13 23:58:00,
2013-02-13 19:03:00,34.7,31.8,29.68,NNW,344,0.0,0.0,89,0.03,-RA,,0.03,0.0,WeatherDisplay:10.37,2013-02-14 00:03:00,
2013-02-13 19:08:00,34.6,31.7,29.68,NNW,344,0.0,0.0,89,0.03,-RA,,0.03,0.0,WeatherDisplay:10.37,2013-02-14 00:08:00,
2013-02-13 19:13:00,34.4,31.5,29.68,NNW,344,0.5,1.5,89,0.02,-RA,,0.03,0.0,WeatherDisplay:10.37,2013-02-14 00:13:00,
2013-02-13 19:18:00,34.3,31.4,29.69,NNW,344,0.0,0.0,89,0.03,-RA,,0.04,0.0,WeatherDisplay:10.37,2013-02-14 00:18:00,
2013-02-13 19:23:00,34.1,31.5,29.69,NNW,344,0.0,1.1,90,0.03,-RA,,0.04,0.0,WeatherDisplay:10.37,2013-02-14 00:23:00,
2013-02-13 19:28:00,33.7,31.1,29.70,NNW,344,0.0,0.0,90,0.04,-RA,,0.05,0.0,WeatherDisplay:10.37,2013-02-14 00:28:00,
2013-02-13 19:33:00,33.5,30.9,29.70,NNW,344,0.0,0.0,90,0.04,-RA,,0.05,0.0,WeatherDisplay:10.37,2013-02-14 00:33:00,
2013-02-13 19:38:00,33.2,30.6,29.70,NNW,344,0.1,1.5,90,0.04,-RA,,0.05,0.0,WeatherDisplay:10.37,2013-02-14 00:38:00,
2013-02-13 19:43:00,33.1,30.8,29.70,NNW,344,0.0,0.0,91,0.04,-RA,,0.06,0.0,WeatherDisplay:10.37,2013-02-14 00:43:00,
2013-02-13 19:48:00,33.1,30.8,29.70,NNW,344,0.1,1.5,91,0.04,-RA,,0.06,0.0,WeatherDisplay:10.37,2013-02-14 00:48:00,
2013-02-13 19:53:00,33.1,30.8,29.70,NNW,344,0.0,0.0,91,0.04,-RA,,0.06,0.0,WeatherDisplay:10.37,2013-02-14 00:53:00,
2013-02-13 19:58:00,32.9,30.8,29.70,NNW,344,0.0,1.5,92,0.03,-RA,,0.06,0.0,WeatherDisplay:10.37,2013-02-14 00:58:00,
2013-02-13 20:03:00,32.9,30.8,29.70,NNW,344,0.0,0.0,92,0.03,-RA,,0.06,0.0,WeatherDisplay:10.37,2013-02-14 01:03:00,
2013-02-13 20:08:00,32.9,30.8,29.70,NNW,344,0.0,0.0,92,0.03,-RA,,0.06,0.0,WeatherDisplay:10.37,2013-02-14 01:08:00,
2013-02-13 20:13:00,32.9,30.8,29.70,NNW,344,0.0,0.0,92,0.04,-RA,,0.07,0.0,WeatherDisplay:10.37,2013-02-14 01:13:00,
2013-02-13 20:18:00,32.9,30.8,29.71,NNW,344,0.0,0.0,92,0.03,-RA,,0.07,0.0,WeatherDisplay:10.37,2013-02-14 01:18:00,
2013-02-13 20:23:00,32.9,30.8,29.71,NNW,344,0.3,1.1,92,0.03,-RA,,0.07,0.0,WeatherDisplay:10.37,2013-02-14 01:23:00,
2013-02-13 20:28:00,32.8,30.7,29.71,NNW,344,0.0,0.0,92,0.02,-RA,,0.07,0.0,WeatherDisplay:10.37,2013-02-14 01:28:00,
2013-02-13 20:33:00,32.8,31.0,29.71,NNW,344,0.0,1.5,93,0.02,-RA,,0.07,0.0,WeatherDisplay:10.37,2013-02-14 01:33:00,
2013-02-13 20:38:00,32.9,31.1,29.71,NNW,344,1.1,3.0,93,0.02,-RA,,0.07,0.0,WeatherDisplay:10.37,2013-02-14 01:38:00,
2013-02-13 20:43:00,32.9,31.1,29.71,NNW,344,1.4,3.5,93,0.01,-RA,,0.07,0.0,WeatherDisplay:10.37,2013-02-14 01:43:00,
2013-02-13 20:48:00,32.9,31.1,29.71,NNW,344,0.0,0.0,93,0.01,-RA,,0.07,0.0,WeatherDisplay:10.37,2013-02-14 01:48:00,
2013-02-13 20:53:00,32.9,31.1,29.71,NNW,342,0.0,0.0,93,0.01,-RA,,0.07,0.0,WeatherDisplay:10.37,2013-02-14 01:53:00,
2013-02-13 20:58:00,32.9,31.1,29.71,NNW,342,0.0,0.0,93,0.01,-RA,,0.07,0.0,WeatherDisplay:10.37,2013-02-14 01:58:00,
2013-02-13 21:04:00,32.9,31.1,29.72,NNW,342,0.0,0.0,93,0.01,-RA,,0.07,0.0,WeatherDisplay:10.37,2013-02-14 02:04:00,
2013-02-13 21:09:00,32.9,31.4,29.72,NNW,342,0.0,0.0,94,0.01,-RA,,0.07,0.0,WeatherDisplay:10.37,2013-02-14 02:09:00,
2013-02-13 21:14:00,32.9,31.4,29.71,NNW,342,0.0,0.0,94,0.00,-RA,,0.07,0.0,WeatherDisplay:10.37,2013-02-14 02:14:00,
2013-02-13 21:19:00,32.8,31.3,29.72,NNW,342,0.0,0.0,94,0.00,-RA,,0.07,0.0,WeatherDisplay:10.37,2013-02-14 02:19:00,
2013-02-13 21:24:00,32.9,31.4,29.72,NNW,342,0.0,1.1,94,0.00,-RA,,0.07,0.0,WeatherDisplay:10.37,2013-02-14 02:24:00,
2013-02-13 21:29:00,32.9,31.4,29.72,NNW,342,0.0,1.1,94,0.00,-RA,,0.07,0.0,WeatherDisplay:10.37,2013-02-14 02:29:00,
2013-02-13 21:34:00,32.9,31.4,29.72,NNW,342,0.0,0.0,94,0.00,-RA,,0.07,0.0,WeatherDisplay:10.37,2013-02-14 02:34:00,
2013-02-13 21:39:00,32.9,31.4,29.73,NNW,342,0.0,0.0,94,0.00,-RA,,0.07,0.0,WeatherDisplay:10.37,2013-02-14 02:39:00,
2013-02-13 21:44:00,32.9,31.4,29.73,NNW,342,0.0,0.0,94,0.00,-RA,,0.07,0.0,WeatherDisplay:10.37,2013-02-14 02:44:00,
2013-02-13 21:49:00,32.9,31.4,29.73,NNW,342,0.0,0.0,94,0.00,-RA,,0.07,0.0,WeatherDisplay:10.37,2013-02-14 02:49:00,
2013-02-13 21:54:00,32.9,31.4,29.73,NNW,342,0.0,0.0,94,0.00,-RA,,0.07,0.0,WeatherDisplay:10.37,2013-02-14 02:54:00,
2013-02-13 21:59:00,32.9,31.6,29.73,NNW,342,0.0,0.0,95,0.00,-RA,,0.07,0.0,WeatherDisplay:10.37,2013-02-14 02:59:00,
2013-02-13 22:04:00,32.9,31.6,29.73,NNW,342,0.0,0.0,95,0.00,-SN,,0.07,0.0,WeatherDisplay:10.37,2013-02-14 03:04:00,
2013-02-13 22:09:00,32.9,31.6,29.73,NNW,342,0.0,0.0,95,0.00,-SN,,0.07,0.0,WeatherDisplay:10.37,2013-02-14 03:09:00,
2013-02-13 22:14:00,32.9,31.6,29.73,NNW,342,0.0,0.0,95,0.01,-SN,,0.08,0.0,WeatherDisplay:10.37,2013-02-14 03:14:00,
2013-02-13 22:19:00,32.9,31.6,29.73,NNW,342,0.0,0.0,95,0.01,-SN,,0.08,0.0,WeatherDisplay:10.37,2013-02-14 03:19:00,
2013-02-13 22:24:00,32.9,31.6,29.73,NNW,342,0.0,0.0,95,0.01,-SN,,0.08,0.0,WeatherDisplay:10.37,2013-02-14 03:24:00,
2013-02-13 22:29:00,32.9,31.6,29.73,NNW,342,0.0,0.0,95,0.01,-SN,,0.08,0.0,WeatherDisplay:10.37,2013-02-14 03:29:00,
2013-02-13 22:34:00,32.9,31.6,29.73,NNW,342,0.0,0.0,95,0.01,OVC,,0.08,0.0,WeatherDisplay:10.37,2013-02-14 03:34:00,
2013-02-13 22:39:00,32.9,31.6,29.74,NNW,342,0.0,0.0,95,0.01,OVC,,0.08,0.0,WeatherDisplay:10.37,2013-02-14 03:39:00,
2013-02-13 22:44:00,32.9,31.6,29.74,NNW,342,0.0,0.0,95,0.01,OVC,,0.08,0.0,WeatherDisplay:10.37,2013-02-14 03:44:00,
2013-02-13 22:49:00,32.9,31.6,29.74,NNW,342,0.0,0.0,95,0.01,OVC,,0.08,0.0,WeatherDisplay:10.37,2013-02-14 03:49:00,
2013-02-13 22:54:00,32.9,31.6,29.74,NNW,342,0.0,0.0,95,0.01,OVC,,0.08,0.0,WeatherDisplay:10.37,2013-02-14 03:54:00,
2013-02-13 22:59:00,32.9,31.6,29.74,NNW,342,0.0,0.0,95,0.01,OVC,,0.08,0.0,WeatherDisplay:10.37,2013-02-14 03:59:00,
2013-02-13 23:04:00,33.1,31.8,29.74,NNW,342,0.5,1.5,95,0.01,OVC,,0.08,0.0,WeatherDisplay:10.37,2013-02-14 04:04:00,
2013-02-13 23:09:00,33.1,31.8,29.74,NNW,342,0.4,1.1,95,0.01,OVC,,0.08,0.0,WeatherDisplay:10.37,2013-02-14 04:09:00,
2013-02-13 23:14:00,33.1,31.8,29.74,NNW,342,0.0,0.0,95,0.00,OVC,,0.08,0.0,WeatherDisplay:10.37,2013-02-14 04:14:00,
2013-02-13 23:19:00,33.1,31.8,29.74,NNW,342,0.0,0.0,95,0.00,OVC,,0.08,0.0,WeatherDisplay:10.37,2013-02-14 04:19:00,
2013-02-13 23:24:00,33.1,31.8,29.75,NNW,342,0.0,0.0,95,0.00,OVC,,0.08,0.0,WeatherDisplay:10.37,2013-02-14 04:24:00,
2013-02-13 23:29:00,32.9,31.6,29.74,NNW,342,0.0,0.0,95,0.00,OVC,,0.08,0.0,WeatherDisplay:10.37,2013-02-14 04:29:00,
2013-02-13 23:34:00,32.9,31.6,29.75,NNW,342,0.0,0.0,95,0.00,OVC,,0.08,0.0,WeatherDisplay:10.37,2013-02-14 04:34:00,
2013-02-13 23:39:00,32.9,31.6,29.75,NNW,342,0.0,0.0,95,0.00,OVC,,0.08,0.0,WeatherDisplay:10.37,2013-02-14 04:39:00,
2013-02-13 23:44:00,32.9,31.6,29.75,NNW,342,0.0,0.0,95,0.00,OVC,,0.08,0.0,WeatherDisplay:10.37,2013-02-14 04:44:00,
2013-02-13 23:49:00,32.9,31.6,29.75,NNW,342,0.0,0.0,95,0.00,OVC,,0.08,0.0,WeatherDisplay:10.37,2013-02-14 04:49:00,
2013-02-13 23:54:00,33.1,31.8,29.75,NNW,342,0.0,0.0,95,0.00,OVC,,0.08,0.0,WeatherDisplay:10.37,2013-02-14 04:54:00,
2013-02-13 23:59:00,32.9,31.6,29.75,NNW,342,0.0,0.0,95,0.00,OVC,,0.08,0.0,WeatherDisplay:10.37,2013-02-14 04:59:00,